7IL3 weather

Lutz Restricted Landing Area
Green Valley, Illinois, United States

Public forecast

Using degrees Fahrenheit for public forecast. Weather courtesy of forecast.io.

Closest aviation weather report (METAR) to Lutz Restricted Landing Area

Closest report is General Wayne A. Downing Peoria International Airport, 14.8 nm (27.3 km) NNW. Retrieved 2019/12/12 20:54 UTC (14 minutes ago):

KPIA 122054Z 20016KT 10SM OVC080 09/M04 A3008 RMK AO2 SLP191 T00891039 56030

Closest aviation forecast (TAF) to Lutz Restricted Landing Area

Closest forecast is General Wayne A. Downing Peoria International Airport, 14.8 nm (27.3 km) NNW. Retrieved 2019/12/12 18:22 UTC (3 hours ago):

TAF KPIA 121720Z 1218/1318 20018G30KT P6SM BKN250 FM122100 20014G22KT P6SM SCT080 BKN200 FM130000 19008KT P6SM BKN080